Time;durP1;ratioP1;P1;durP2;ratioP2;P2;SDS_P1;SDS_P2;PMS_P1;PMS_P2;Temp;Humidity;BMP_temperature;BMP_pressure;BME280_temperature;BME280_humidity;BME280_pressure;Samples;Min_cycle;Max_cycle;Signal;HPM_P1;HPM_P2
2022/01/21 00:01:38;;;;;;;2.73;1.30;;;1.20;99.90;;;;;;4936398;29;20599;-79
2022/01/21 00:04:05;;;;;;;3.93;1.10;;;1.20;99.90;;;;;;4924514;29;20499;-78
2022/01/21 00:06:31;;;;;;;2.77;1.20;;;1.20;99.90;;;;;;4936071;29;20448;-80
2022/01/21 00:09:00;;;;;;;4.90;1.30;;;1.20;99.90;;;;;;4932966;29;20479;-78
2022/01/21 00:11:30;;;;;;;5.67;1.40;;;1.20;99.90;;;;;;4930398;29;20552;-79
2022/01/21 00:13:59;;;;;;;6.97;1.60;;;1.30;99.90;;;;;;4933827;29;20929;-77
2022/01/21 00:16:26;;;;;;;3.67;1.20;;;1.20;99.90;;;;;;4930729;29;20483;-77
2022/01/21 00:18:59;;;;;;;3.57;1.87;;;1.20;99.90;;;;;;4948039;29;20485;-77
2022/01/21 00:32:31;;;;;;;3.73;1.80;;;1.20;99.90;;;;;;4933299;29;20486;-78
2022/01/21 00:34:56;;;;;;;1.77;1.33;;;1.20;99.90;;;;;;4938314;29;20538;-79
2022/01/21 00:37:22;;;;;;;2.00;1.40;;;1.40;99.90;;;;;;4931448;29;20488;-79
2022/01/21 00:39:53;;;;;;;2.43;1.53;;;1.20;99.90;;;;;;4933778;29;20214;-78
2022/01/21 00:44:53;;;;;;;2.87;1.50;;;1.20;99.90;;;;;;4936911;29;20550;-78
2022/01/21 00:47:19;;;;;;;2.50;1.10;;;1.20;99.90;;;;;;4932653;29;20476;-78
2022/01/21 00:49:45;;;;;;;3.53;1.70;;;1.20;99.90;;;;;;4933484;29;20475;-77
2022/01/21 00:52:11;;;;;;;4.97;1.30;;;1.20;99.90;;;;;;4929220;29;20989;-78
2022/01/21 00:54:40;;;;;;;3.70;1.30;;;1.20;99.90;;;;;;4927696;29;20214;-78
2022/01/21 00:57:06;;;;;;;3.33;1.13;;;1.30;99.90;;;;;;4925174;29;20249;-78
2022/01/21 00:59:32;;;;;;;4.60;1.40;;;1.30;99.90;;;;;;4935920;29;20852;-78
2022/01/21 01:01:58;;;;;;;3.47;1.33;;;1.30;99.90;;;;;;4937232;29;20197;-78
2022/01/21 01:04:24;;;;;;;4.20;1.40;;;1.30;99.90;;;;;;4925744;29;20724;-78
2022/01/21 01:06:50;;;;;;;1.73;1.13;;;1.30;99.90;;;;;;4925975;29;20456;-79
2022/01/21 01:09:16;;;;;;;2.50;1.23;;;1.30;99.90;;;;;;4939956;29;20526;-78
2022/01/21 01:20:02;;;;;;;2.10;1.10;;;1.30;99.90;;;;;;4934342;29;20439;-78
2022/01/21 01:28:02;;;;;;;3.10;1.83;;;1.30;99.90;;;;;;4934745;29;21025;-79
2022/01/21 01:30:31;;;;;;;3.10;1.77;;;1.30;99.90;;;;;;4939132;29;20716;-79
2022/01/21 01:32:58;;;;;;;2.60;1.60;;;1.30;99.90;;;;;;4941653;29;20483;-79
2022/01/21 01:35:30;;;;;;;2.43;1.50;;;1.40;99.90;;;;;;4943012;29;20458;-78
2022/01/21 01:51:28;;;;;;;6.10;2.47;;;1.40;99.90;;;;;;4927295;29;20972;-77
2022/01/21 01:53:59;;;;;;;2.70;1.37;;;1.40;99.90;;;;;;4934616;29;20508;-79
2022/01/21 01:56:29;;;;;;;4.20;1.53;;;1.40;99.90;;;;;;4936502;29;20499;-80
2022/01/21 01:58:57;;;;;;;3.13;1.40;;;1.70;99.90;;;;;;4934976;29;20467;-77
2022/01/21 02:01:22;;;;;;;5.33;1.47;;;1.40;99.90;;;;;;4940585;29;20475;-78
2022/01/21 02:03:48;;;;;;;4.13;1.37;;;1.40;99.90;;;;;;4930821;29;20459;-78
2022/01/21 02:06:16;;;;;;;5.83;1.73;;;1.40;99.90;;;;;;4936063;29;20184;-78
2022/01/21 02:08:42;;;;;;;3.07;1.50;;;1.40;99.90;;;;;;4933805;29;20315;-78
2022/01/21 02:11:13;;;;;;;4.77;1.63;;;1.50;99.90;;;;;;4934386;29;20543;-79
2022/01/21 02:13:45;;;;;;;5.60;1.93;;;1.40;99.90;;;;;;4933012;29;20715;-79
2022/01/21 02:16:37;;;;;;;4.23;1.60;;;1.50;99.90;;;;;;4934790;29;20433;-79
2022/01/21 02:21:56;;;;;;;5.80;1.43;;;1.40;99.90;;;;;;4932858;29;20472;-79
2022/01/21 02:24:35;;;;;;;5.67;1.73;;;1.40;99.90;;;;;;4936912;29;20837;-79
2022/01/21 02:27:01;;;;;;;3.40;1.47;;;1.30;99.90;;;;;;4934175;29;20450;-77
2022/01/21 02:29:32;;;;;;;4.57;1.73;;;1.30;99.90;;;;;;4931206;29;20455;-78
2022/01/21 02:31:59;;;;;;;3.80;1.37;;;1.30;99.90;;;;;;4951310;28;20483;-79
2022/01/21 02:34:31;;;;;;;3.33;1.37;;;1.30;99.90;;;;;;4933014;29;20456;-79
2022/01/21 02:36:57;;;;;;;4.33;1.90;;;1.30;99.90;;;;;;4937488;29;20504;-77
2022/01/21 02:39:22;;;;;;;3.80;1.40;;;1.30;99.90;;;;;;4935432;29;20499;-79
2022/01/21 02:41:48;;;;;;;3.20;1.60;;;1.30;99.90;;;;;;4934601;29;20251;-78
2022/01/21 02:44:17;;;;;;;3.77;1.70;;;1.30;99.90;;;;;;4937004;29;20195;-79
2022/01/21 02:46:43;;;;;;;3.23;1.40;;;1.30;99.90;;;;;;4926706;29;20273;-78
2022/01/21 02:49:12;;;;;;;5.07;1.93;;;1.40;99.90;;;;;;4926811;29;20907;-79
2022/01/21 02:51:40;;;;;;;9.93;1.83;;;1.30;99.90;;;;;;4936201;29;20457;-77
2022/01/21 02:54:06;;;;;;;3.23;1.63;;;1.30;99.90;;;;;;4933493;29;20563;-79
2022/01/21 02:56:38;;;;;;;4.63;1.87;;;1.40;99.90;;;;;;4940035;29;20456;-78
2022/01/21 02:59:06;;;;;;;3.70;1.43;;;1.40;99.90;;;;;;4935272;29;20472;-78
2022/01/21 03:01:35;;;;;;;7.03;1.90;;;1.40;99.90;;;;;;4933532;29;20466;-79
2022/01/21 03:04:03;;;;;;;3.63;1.53;;;1.40;99.90;;;;;;4927433;29;20563;-78
2022/01/21 03:06:32;;;;;;;3.43;1.10;;;1.40;99.90;;;;;;4926715;29;20795;-78
2022/01/21 03:08:59;;;;;;;4.40;1.30;;;1.40;99.90;;;;;;4944520;23;21015;-73
2022/01/21 03:11:34;;;;;;;7.33;1.70;;;1.40;99.90;;;;;;4944818;29;20486;-73
2022/01/21 03:13:59;;;;;;;5.03;1.70;;;1.40;99.90;;;;;;4949244;29;20520;-73
2022/01/21 03:16:31;;;;;;;2.80;1.77;;;1.40;99.90;;;;;;4941913;29;20444;-73
2022/01/21 03:18:57;;;;;;;5.33;2.17;;;1.40;99.90;;;;;;4935190;29;20315;-73
2022/01/21 03:21:22;;;;;;;3.73;1.40;;;1.40;99.90;;;;;;4924300;29;20527;-73
2022/01/21 03:23:55;;;;;;;6.93;2.20;;;1.50;99.90;;;;;;4929276;29;20193;-73
2022/01/21 03:26:23;;;;;;;3.73;1.67;;;1.50;99.90;;;;;;4922845;29;20566;-73
2022/01/21 03:28:52;;;;;;;6.60;1.70;;;1.50;99.90;;;;;;4934811;29;20491;-73
2022/01/21 03:31:19;;;;;;;5.27;2.10;;;1.60;99.90;;;;;;4925588;29;21043;-73
2022/01/21 03:33:45;;;;;;;6.97;1.80;;;1.60;99.90;;;;;;4942954;29;20482;-73
2022/01/21 03:36:16;;;;;;;2.90;1.70;;;1.60;99.90;;;;;;4927224;29;20492;-73
2022/01/21 03:38:42;;;;;;;7.83;2.03;;;1.70;99.90;;;;;;4921459;29;20476;-73
2022/01/21 03:41:08;;;;;;;5.93;1.60;;;1.70;99.90;;;;;;4924855;29;20452;-73
2022/01/21 03:43:34;;;;;;;4.63;1.40;;;1.80;99.90;;;;;;4929022;29;20451;-73
2022/01/21 03:46:03;;;;;;;3.90;1.60;;;1.80;99.90;;;;;;4927820;29;20226;-73
2022/01/21 03:48:31;;;;;;;4.10;1.30;;;1.80;99.90;;;;;;4926038;29;20484;-73
2022/01/21 03:50:59;;;;;;;5.93;1.63;;;1.80;99.90;;;;;;4926879;29;20511;-73
2022/01/21 03:53:25;;;;;;;6.03;2.00;;;1.80;99.90;;;;;;4924575;29;20490;-73
2022/01/21 03:55:53;;;;;;;8.97;1.87;;;1.80;99.90;;;;;;4940365;29;20448;-73
2022/01/21 03:58:19;;;;;;;6.30;1.80;;;1.90;99.90;;;;;;4926315;29;20197;-73
2022/01/21 04:00:51;;;;;;;4.67;2.33;;;1.90;99.90;;;;;;4938663;29;20479;-73
2022/01/21 04:03:18;;;;;;;5.23;1.70;;;1.90;99.90;;;;;;4935274;29;20492;-73
2022/01/21 04:05:46;;;;;;;9.17;2.20;;;1.90;99.90;;;;;;4921229;29;20555;-73
2022/01/21 04:08:14;;;;;;;7.07;2.00;;;1.90;99.90;;;;;;4934549;29;20519;-74
2022/01/21 04:10:42;;;;;;;5.00;1.80;;;1.90;99.90;;;;;;4926030;29;20467;-74
2022/01/21 04:13:15;;;;;;;6.33;2.23;;;2.00;99.90;;;;;;4927893;29;20475;-73
2022/01/21 04:15:42;;;;;;;6.43;1.93;;;2.00;99.90;;;;;;4918062;29;21430;-74
2022/01/21 04:18:09;;;;;;;6.10;2.10;;;2.00;99.90;;;;;;4925788;29;20444;-74
2022/01/21 04:20:34;;;;;;;7.93;2.43;;;2.00;99.90;;;;;;4927977;29;20968;-74
2022/01/21 04:23:02;;;;;;;6.43;1.70;;;2.10;99.90;;;;;;4926392;29;20488;-74
2022/01/21 04:25:30;;;;;;;4.03;1.73;;;2.20;99.90;;;;;;4923073;29;20200;-73
2022/01/21 04:27:57;;;;;;;7.50;2.47;;;2.20;99.90;;;;;;4921581;29;20678;-74
2022/01/21 04:30:23;;;;;;;3.97;1.90;;;2.20;99.90;;;;;;4918873;29;20504;-74
2022/01/21 04:32:49;;;;;;;6.47;2.00;;;2.20;99.90;;;;;;4927741;29;20508;-74
2022/01/21 04:35:14;;;;;;;5.90;1.80;;;2.20;99.90;;;;;;4924614;29;20189;-74
2022/01/21 04:37:53;;;;;;;7.03;1.87;;;2.20;99.90;;;;;;4923736;29;20200;-74
2022/01/21 04:40:21;;;;;;;6.77;1.93;;;2.30;99.90;;;;;;4939092;29;20325;-73
2022/01/21 04:48:15;;;;;;;5.77;1.67;;;2.30;99.90;;;;;;4924025;29;20462;-74
2022/01/21 04:52:02;;;;;;;5.20;1.83;;;2.20;99.90;;;;;;4923711;29;21074;-74
2022/01/21 04:53:39;;;;;;;6.87;2.30;;;2.20;99.90;;;;;;4917329;29;20243;-74
2022/01/21 04:56:05;;;;;;;4.30;1.33;;;2.20;99.90;;;;;;4932717;29;20846;-74
2022/01/21 04:58:33;;;;;;;3.90;1.63;;;2.30;99.90;;;;;;4926802;29;20574;-74
2022/01/21 05:01:03;;;;;;;4.30;2.07;;;2.30;99.90;;;;;;4928114;29;20523;-74
2022/01/21 05:03:29;;;;;;;3.43;1.63;;;2.30;99.90;;;;;;4927125;29;20440;-73
2022/01/21 05:05:55;;;;;;;9.80;2.43;;;2.30;99.90;;;;;;4939563;29;20451;-73
2022/01/21 05:08:29;;;;;;;5.80;2.17;;;2.30;99.90;;;;;;4932156;29;20443;-73
2022/01/21 05:10:54;;;;;;;6.70;1.63;;;2.30;99.90;;;;;;4930553;29;20448;-73
2022/01/21 05:13:24;;;;;;;4.73;2.60;;;2.40;99.90;;;;;;4935562;29;20849;-73
2022/01/21 05:18:34;;;;;;;4.87;1.50;;;2.30;99.90;;;;;;4926293;29;20788;-73
2022/01/21 05:21:00;;;;;;;7.20;1.63;;;2.30;99.90;;;;;;4927042;29;20958;-73
2022/01/21 05:23:31;;;;;;;7.53;1.93;;;2.30;99.90;;;;;;4923289;29;20610;-74
2022/01/21 05:25:57;;;;;;;6.37;1.80;;;2.40;99.90;;;;;;4930274;29;20577;-73
2022/01/21 05:28:23;;;;;;;7.47;1.70;;;2.40;99.90;;;;;;4924981;29;20474;-73
2022/01/21 05:30:51;;;;;;;11.07;2.00;;;2.40;99.90;;;;;;4920883;29;20197;-73
2022/01/21 05:33:19;;;;;;;5.30;2.03;;;2.40;99.90;;;;;;4933971;29;20507;-73
2022/01/21 05:35:45;;;;;;;7.00;1.70;;;2.40;99.90;;;;;;4930945;29;20451;-73
2022/01/21 05:38:10;;;;;;;10.53;2.00;;;2.50;99.90;;;;;;4924545;29;20883;-73
2022/01/21 05:40:38;;;;;;;6.13;2.00;;;2.40;99.90;;;;;;4927824;29;20208;-73
2022/01/21 05:43:04;;;;;;;4.23;1.97;;;2.40;99.90;;;;;;4922726;29;20753;-73
2022/01/21 05:48:17;;;;;;;4.77;1.83;;;2.50;99.90;;;;;;4925730;29;20502;-73
2022/01/21 05:50:43;;;;;;;6.17;1.93;;;2.50;99.90;;;;;;4928355;29;20444;-73
2022/01/21 05:53:11;;;;;;;4.93;2.30;;;2.50;99.90;;;;;;4925951;29;20231;-73
2022/01/21 05:55:41;;;;;;;3.23;1.80;;;2.50;99.90;;;;;;4925239;29;20574;-74
2022/01/21 05:58:12;;;;;;;15.03;2.30;;;2.50;99.90;;;;;;4924894;29;20461;-73
2022/01/21 06:00:38;;;;;;;6.97;1.60;;;2.50;99.90;;;;;;4918207;29;20443;-74
2022/01/21 06:03:07;;;;;;;6.90;1.57;;;2.60;99.90;;;;;;4925451;29;20448;-74
2022/01/21 06:05:35;;;;;;;6.77;1.77;;;2.60;99.90;;;;;;4919326;29;20217;-73
2022/01/21 06:08:04;;;;;;;5.27;1.50;;;2.60;99.90;;;;;;4919401;29;20455;-74
2022/01/21 06:10:32;;;;;;;4.97;1.60;;;2.70;99.90;;;;;;4923585;29;20507;-74
2022/01/21 06:13:01;;;;;;;5.63;1.80;;;2.80;99.90;;;;;;4934314;29;20483;-74
2022/01/21 06:15:29;;;;;;;3.90;1.60;;;2.80;99.90;;;;;;4920511;29;20460;-74
2022/01/21 06:17:55;;;;;;;5.67;2.17;;;2.80;99.90;;;;;;4955211;29;20452;-73
2022/01/21 06:20:20;;;;;;;5.30;1.40;;;2.80;99.90;;;;;;4921517;29;20486;-74
2022/01/21 06:22:46;;;;;;;2.17;1.40;;;2.70;99.90;;;;;;4923989;29;20200;-73
2022/01/21 06:25:14;;;;;;;5.10;1.40;;;2.70;99.90;;;;;;4922775;29;20204;-73
2022/01/21 06:27:44;;;;;;;5.60;1.60;;;2.70;99.90;;;;;;4936977;29;20219;-73
2022/01/21 06:30:11;;;;;;;4.07;1.60;;;2.70;99.90;;;;;;4932232;29;21518;-73
2022/01/21 06:32:36;;;;;;;3.70;1.50;;;2.70;99.90;;;;;;4936418;29;20480;-73
2022/01/21 06:35:03;;;;;;;6.07;1.43;;;2.70;99.90;;;;;;4942732;29;20458;-73
2022/01/21 06:37:32;;;;;;;5.73;1.30;;;2.60;99.90;;;;;;4923323;29;20192;-73
2022/01/21 06:39:58;;;;;;;4.40;1.40;;;2.60;99.90;;;;;;4913932;29;20479;-73
2022/01/21 06:42:25;;;;;;;1.73;1.53;;;2.50;99.90;;;;;;4908169;29;21046;-73
2022/01/21 06:44:51;;;;;;;6.10;1.43;;;2.50;99.90;;;;;;4931126;29;20203;-73
2022/01/21 06:47:18;;;;;;;3.67;1.20;;;2.60;99.90;;;;;;4907214;29;20457;-73
2022/01/21 06:49:44;;;;;;;3.20;1.37;;;2.50;99.90;;;;;;4905932;29;20659;-73
2022/01/21 06:52:10;;;;;;;2.30;1.10;;;2.50;99.90;;;;;;4907967;29;20574;-73
2022/01/21 06:54:35;;;;;;;3.57;1.57;;;2.50;99.90;;;;;;4907712;29;20607;-73
2022/01/21 06:57:04;;;;;;;6.13;1.50;;;2.50;99.90;;;;;;4905525;29;20192;-73
2022/01/21 06:59:30;;;;;;;6.90;1.60;;;2.50;99.90;;;;;;4910044;29;20223;-73
2022/01/21 07:01:55;;;;;;;8.70;1.80;;;2.40;99.90;;;;;;4904080;29;20465;-73
2022/01/21 07:04:21;;;;;;;4.40;1.37;;;2.50;99.90;;;;;;4890364;29;20271;-73
2022/01/21 07:06:46;;;;;;;3.57;1.30;;;2.40;99.90;;;;;;4904012;29;20196;-73
2022/01/21 07:09:12;;;;;;;2.50;1.27;;;2.40;99.90;;;;;;4913629;29;21230;-73
2022/01/21 07:11:38;;;;;;;2.10;1.30;;;2.40;99.90;;;;;;4917142;29;20735;-73
2022/01/21 07:14:03;;;;;;;6.13;1.43;;;2.40;99.90;;;;;;4902638;29;20216;-73
2022/01/21 07:16:29;;;;;;;5.80;1.27;;;2.30;99.90;;;;;;4911074;29;20601;-73
2022/01/21 07:18:55;;;;;;;4.30;1.63;;;2.30;99.90;;;;;;4917376;29;20650;-74
2022/01/21 07:21:20;;;;;;;4.70;1.50;;;2.30;99.90;;;;;;4911538;29;20245;-73
2022/01/21 07:23:46;;;;;;;4.17;1.70;;;2.30;99.90;;;;;;4911072;29;20564;-73
2022/01/21 07:26:13;;;;;;;2.30;1.17;;;2.30;99.90;;;;;;4911756;29;20224;-73
2022/01/21 07:28:39;;;;;;;3.53;1.20;;;2.30;99.90;;;;;;4911771;29;20220;-73
2022/01/21 07:31:05;;;;;;;3.07;1.43;;;2.30;99.90;;;;;;4910638;29;20808;-73
2022/01/21 07:33:31;;;;;;;2.33;1.50;;;2.30;99.90;;;;;;4912222;29;20831;-73
2022/01/21 07:35:57;;;;;;;2.97;1.30;;;2.30;99.90;;;;;;4911772;29;20456;-73
2022/01/21 07:38:22;;;;;;;2.70;1.30;;;2.30;99.90;;;;;;4928395;29;20610;-73
2022/01/21 07:40:48;;;;;;;3.53;1.47;;;2.30;99.90;;;;;;4915547;29;20657;-73
2022/01/21 07:43:13;;;;;;;4.60;1.00;;;2.20;99.90;;;;;;4913631;29;20205;-73
2022/01/21 07:45:39;;;;;;;2.87;1.40;;;2.20;99.90;;;;;;4910265;29;20299;-73
2022/01/21 07:48:06;;;;;;;4.50;1.37;;;2.20;99.90;;;;;;4930921;29;20184;-73
2022/01/21 07:50:33;;;;;;;2.60;1.53;;;2.20;99.90;;;;;;4926943;29;20196;-73
2022/01/21 07:52:59;;;;;;;4.23;1.37;;;2.20;99.90;;;;;;4922115;29;20480;-73
2022/01/21 07:55:25;;;;;;;3.20;1.60;;;2.20;99.90;;;;;;4913420;29;20452;-73
2022/01/21 07:57:51;;;;;;;2.77;1.60;;;2.20;99.90;;;;;;4918564;29;20574;-73
2022/01/21 08:00:17;;;;;;;1.70;1.40;;;2.20;99.90;;;;;;4920046;29;20691;-73
2022/01/21 08:02:42;;;;;;;7.63;2.17;;;2.20;99.90;;;;;;4926616;29;20200;-73
2022/01/21 08:05:08;;;;;;;4.57;1.43;;;2.20;99.90;;;;;;4920420;29;20452;-73
2022/01/21 08:07:34;;;;;;;4.50;1.67;;;2.20;99.90;;;;;;4914291;29;20200;-73
2022/01/21 08:09:59;;;;;;;3.77;1.33;;;2.20;99.90;;;;;;4913211;29;20483;-74
2022/01/21 08:12:25;;;;;;;4.30;1.60;;;2.20;99.90;;;;;;4918447;29;20236;-74
2022/01/21 08:14:50;;;;;;;6.33;1.90;;;2.20;99.90;;;;;;4917803;29;20582;-73
2022/01/21 08:17:16;;;;;;;4.90;1.63;;;2.20;99.90;;;;;;4923602;29;20195;-73
2022/01/21 08:19:41;;;;;;;3.33;1.57;;;2.20;99.90;;;;;;4911968;29;20239;-73
2022/01/21 08:22:07;;;;;;;3.60;1.40;;;2.30;99.90;;;;;;4924451;29;20232;-74
2022/01/21 08:24:33;;;;;;;6.87;2.40;;;2.20;99.90;;;;;;4913860;29;20275;-74
2022/01/21 08:26:58;;;;;;;3.80;1.77;;;2.30;99.90;;;;;;4917359;29;20189;-74
2022/01/21 08:29:24;;;;;;;3.30;1.43;;;2.20;99.90;;;;;;4909647;29;20453;-74
2022/01/21 08:31:49;;;;;;;3.90;1.60;;;2.20;99.90;;;;;;4915662;29;20307;-74
2022/01/21 08:34:15;;;;;;;5.60;1.67;;;2.20;99.90;;;;;;4913464;29;20639;-73
2022/01/21 08:36:43;;;;;;;3.97;1.90;;;2.20;99.90;;;;;;4915826;29;20188;-74
2022/01/21 08:39:09;;;;;;;3.27;1.47;;;2.10;99.90;;;;;;4917942;29;20472;-73
2022/01/21 08:41:35;;;;;;;4.87;1.30;;;2.20;99.90;;;;;;4923302;29;20492;-74
2022/01/21 08:44:01;;;;;;;2.40;1.90;;;2.20;99.90;;;;;;4913948;29;21066;-74
2022/01/21 08:46:26;;;;;;;3.40;1.47;;;2.30;99.90;;;;;;4916684;29;20200;-74
2022/01/21 08:48:52;;;;;;;3.70;1.50;;;2.30;99.90;;;;;;4913955;29;20306;-73
2022/01/21 08:51:29;;;;;;;4.90;1.63;;;2.30;99.90;;;;;;4917124;29;20555;-74
2022/01/21 08:53:55;;;;;;;4.83;1.73;;;2.30;99.90;;;;;;4919258;29;20209;-74
2022/01/21 08:56:23;;;;;;;3.03;1.47;;;2.40;99.90;;;;;;4923879;29;20565;-74
2022/01/21 08:58:49;;;;;;;4.13;1.27;;;2.30;99.90;;;;;;4919641;29;20455;-74
2022/01/21 09:01:17;;;;;;;3.03;1.40;;;2.40;99.90;;;;;;4927334;29;20448;-73
2022/01/21 09:03:44;;;;;;;2.47;1.00;;;2.40;99.90;;;;;;4927670;29;20204;-73
2022/01/21 09:06:11;;;;;;;1.20;1.07;;;2.40;99.90;;;;;;4924419;29;20483;-73
2022/01/21 09:08:40;;;;;;;1.87;1.67;;;2.50;99.90;;;;;;4920463;29;20486;-73
2022/01/21 09:11:06;;;;;;;5.50;1.17;;;2.50;99.90;;;;;;4939644;23;20630;-77
2022/01/21 09:13:38;;;;;;;3.43;1.50;;;2.50;99.90;;;;;;4939896;28;20574;-77
2022/01/21 09:16:07;;;;;;;1.90;1.23;;;2.50;99.90;;;;;;4936678;28;20184;-78
2022/01/21 09:18:45;;;;;;;1.93;1.13;;;2.60;99.90;;;;;;4938629;28;21091;-77
2022/01/21 09:21:12;;;;;;;2.20;0.93;;;2.70;99.90;;;;;;4934011;28;20466;-78
2022/01/21 09:23:37;;;;;;;5.10;1.70;;;2.70;99.90;;;;;;4933634;29;20850;-77
2022/01/21 09:26:03;;;;;;;3.43;1.27;;;2.70;99.90;;;;;;4923296;29;20515;-78
2022/01/21 09:28:28;;;;;;;3.50;1.40;;;2.80;99.90;;;;;;4923819;29;20224;-78
2022/01/21 09:30:54;;;;;;;1.00;0.87;;;2.80;99.90;;;;;;4922185;29;20212;-79
2022/01/21 09:33:22;;;;;;;4.27;1.60;;;2.80;99.90;;;;;;4919469;29;20555;-81
2022/01/21 09:35:48;;;;;;;6.00;1.27;;;2.90;99.90;;;;;;4922749;29;21733;-78
2022/01/21 09:38:13;;;;;;;4.17;1.10;;;2.90;99.90;;;;;;4921287;29;21236;-79
2022/01/21 09:40:45;;;;;;;5.43;1.20;;;3.00;99.90;;;;;;4921644;29;20208;-79
2022/01/21 09:43:11;;;;;;;2.80;1.10;;;3.00;99.90;;;;;;4938661;29;20194;-76
2022/01/21 09:45:38;;;;;;;4.40;1.00;;;3.00;99.90;;;;;;4924346;29;20444;-76
2022/01/21 09:48:05;;;;;;;1.60;1.00;;;3.30;99.90;;;;;;4922917;29;20188;-78
2022/01/21 09:50:32;;;;;;;1.73;1.00;;;3.00;99.90;;;;;;4935482;29;20472;-77
2022/01/21 09:52:58;;;;;;;3.83;1.07;;;3.10;99.90;;;;;;4927803;29;20941;-80
2022/01/21 09:55:24;;;;;;;3.90;1.20;;;3.20;99.90;;;;;;4920501;29;20448;-76
2022/01/21 09:57:53;;;;;;;1.90;0.97;;;3.20;99.90;;;;;;4923248;29;21436;-77
2022/01/21 10:00:21;;;;;;;1.80;1.10;;;3.20;99.90;;;;;;4926725;29;22966;-76
2022/01/21 10:02:49;;;;;;;1.63;1.00;;;3.30;99.90;;;;;;4922417;29;20463;-77
2022/01/21 10:05:15;;;;;;;1.87;1.03;;;3.40;99.90;;;;;;4918910;29;20478;-77
2022/01/21 10:07:46;;;;;;;2.10;1.10;;;3.40;99.90;;;;;;4920294;29;20521;-77
2022/01/21 10:10:13;;;;;;;2.27;1.17;;;3.50;99.90;;;;;;4922346;29;20555;-78
2022/01/21 10:12:43;;;;;;;1.80;0.70;;;3.60;99.90;;;;;;4923156;29;20475;-79
2022/01/21 10:15:09;;;;;;;3.27;1.20;;;3.90;99.90;;;;;;4922843;29;20455;-77
2022/01/21 10:17:36;;;;;;;2.50;1.20;;;3.60;99.90;;;;;;4921003;29;20463;-77
2022/01/21 10:20:13;;;;;;;3.40;1.40;;;3.70;99.90;;;;;;4924095;29;20587;-77
2022/01/21 10:22:38;;;;;;;1.20;0.80;;;3.70;99.90;;;;;;4921748;29;20967;-78
2022/01/21 10:25:06;;;;;;;2.53;1.10;;;3.80;99.90;;;;;;4919384;29;20557;-79
2022/01/21 10:27:35;;;;;;;3.40;1.33;;;3.90;99.90;;;;;;4922359;29;20251;-77
2022/01/21 10:30:06;;;;;;;4.07;1.00;;;4.00;99.90;;;;;;4930055;29;20518;-78
2022/01/21 10:32:40;;;;;;;5.43;1.00;;;4.10;99.90;;;;;;4929372;29;20551;-76
2022/01/21 10:35:32;;;;;;;2.20;1.10;;;4.20;99.90;;;;;;4940386;29;20495;-78
2022/01/21 10:38:17;;;;;;;3.40;1.53;;;4.30;99.90;;;;;;4924349;29;20998;-79
2022/01/21 10:40:43;;;;;;;2.90;1.47;;;4.40;99.90;;;;;;4922348;29;20585;-77
2022/01/21 10:43:17;;;;;;;2.00;1.37;;;4.50;99.90;;;;;;4928499;29;20567;-77
2022/01/21 10:45:52;;;;;;;3.30;1.70;;;4.60;99.90;;;;;;4926595;29;20865;-80
2022/01/21 10:48:20;;;;;;;2.80;1.40;;;4.80;99.90;;;;;;4929238;29;20451;-80
2022/01/21 10:50:46;;;;;;;4.20;1.37;;;4.70;99.90;;;;;;4924838;29;20597;-78
2022/01/21 10:53:29;;;;;;;5.83;1.80;;;4.80;99.90;;;;;;4930313;29;21374;-79
2022/01/21 10:56:10;;;;;;;6.60;1.83;;;4.80;99.90;;;;;;4942277;28;20327;-86
2022/01/21 10:58:43;;;;;;;7.03;1.80;;;5.00;99.90;;;;;;4931968;29;20475;-83
2022/01/21 11:01:18;;;;;;;3.67;2.17;;;4.90;99.90;;;;;;4923757;29;20468;-85
2022/01/21 11:04:11;;;;;;;4.17;1.53;;;4.90;99.90;;;;;;4930774;29;20451;-90
2022/01/21 11:06:50;;;;;;;4.13;1.20;;;5.00;99.90;;;;;;4926054;29;20460;-86
2022/01/21 11:09:24;;;;;;;4.87;1.23;;;5.10;99.90;;;;;;4940795;28;20868;-85
2022/01/21 11:12:13;;;;;;;3.10;1.40;;;5.10;99.90;;;;;;4932667;29;20578;-80
2022/01/21 11:15:04;;;;;;;3.90;1.80;;;5.20;99.90;;;;;;4927355;29;21066;-84
2022/01/21 11:17:29;;;;;;;4.93;1.80;;;5.30;99.90;;;;;;4942643;29;20860;-81
2022/01/21 11:20:13;;;;;;;3.97;1.60;;;5.50;99.90;;;;;;4930978;29;20474;-87
2022/01/21 11:22:54;;;;;;;6.33;1.90;;;5.50;99.90;;;;;;4932958;29;20191;-81
2022/01/21 11:25:53;;;;;;;5.83;1.87;;;5.70;99.90;;;;;;4930303;29;20451;-80
2022/01/21 11:28:20;;;;;;;4.93;1.60;;;5.80;99.90;;;;;;4929996;29;20449;-85
2022/01/21 11:30:47;;;;;;;3.20;1.73;;;6.00;99.90;;;;;;4931251;29;21059;-80
2022/01/21 11:33:13;;;;;;;3.13;1.50;;;6.10;99.90;;;;;;4930832;29;20527;-84
2022/01/21 11:35:39;;;;;;;2.60;1.37;;;6.20;99.90;;;;;;4929481;29;20464;-80
2022/01/21 11:38:07;;;;;;;2.43;1.40;;;6.30;99.90;;;;;;4930212;29;20280;-81
2022/01/21 11:40:33;;;;;;;3.23;1.43;;;6.40;99.90;;;;;;4931221;29;20468;-80
2022/01/21 11:43:01;;;;;;;7.27;1.90;;;6.80;99.90;;;;;;4929288;29;20452;-80
2022/01/21 11:50:40;;;;;;;2.97;1.30;;;6.60;99.90;;;;;;4929753;29;20471;-80
2022/01/21 11:53:08;;;;;;;5.20;1.90;;;6.70;99.90;;;;;;4929272;29;20503;-80
2022/01/21 11:55:41;;;;;;;4.50;1.70;;;6.70;99.90;;;;;;4928684;29;20487;-86
2022/01/21 11:58:18;;;;;;;3.37;1.50;;;6.60;99.90;;;;;;4931150;29;20440;-80
2022/01/21 12:00:47;;;;;;;4.60;1.87;;;6.60;99.90;;;;;;4926888;29;20474;-83
2022/01/21 12:03:15;;;;;;;6.23;1.57;;;6.50;99.90;;;;;;4928622;29;20456;-82
2022/01/21 12:05:41;;;;;;;5.80;1.90;;;6.50;99.90;;;;;;4924953;29;20607;-82
2022/01/21 12:08:07;;;;;;;7.10;2.10;;;6.50;99.90;;;;;;4929235;29;20448;-81
2022/01/21 12:10:37;;;;;;;4.17;1.50;;;6.50;99.90;;;;;;4932797;29;20478;-81
2022/01/21 12:13:19;;;;;;;8.13;1.90;;;6.50;99.90;;;;;;4949044;28;20263;-83
2022/01/21 12:21:03;;;;;;;5.00;2.00;;;6.60;99.90;;;;;;4926683;29;20543;-85
2022/01/21 12:23:30;;;;;;;4.90;2.80;;;6.60;99.90;;;;;;4929810;29;20444;-81
2022/01/21 12:26:14;;;;;;;6.03;1.93;;;6.60;99.90;;;;;;4947188;29;20462;-83
2022/01/21 12:28:43;;;;;;;3.00;1.97;;;6.60;99.90;;;;;;4949916;29;20463;-84
2022/01/21 12:31:10;;;;;;;4.70;1.70;;;6.70;99.90;;;;;;4937044;29;20663;-80
2022/01/21 12:34:04;;;;;;;5.67;1.70;;;6.70;99.90;;;;;;4936795;29;21014;-82
2022/01/21 12:36:34;;;;;;;4.73;2.10;;;6.60;99.90;;;;;;4953639;28;20456;-82
2022/01/21 12:41:35;;;;;;;7.70;2.03;;;6.60;99.90;;;;;;4929223;29;20490;-77
2022/01/21 12:44:09;;;;;;;3.93;1.43;;;6.60;99.90;;;;;;4923315;29;20479;-85
2022/01/21 12:46:42;;;;;;;5.67;1.60;;;6.60;99.90;;;;;;4937225;29;20467;-81
2022/01/21 12:49:29;;;;;;;7.93;1.80;;;6.50;99.90;;;;;;4936583;29;20460;-82
2022/01/21 12:57:27;;;;;;;7.27;1.60;;;6.60;99.90;;;;;;4938005;29;20435;-81
2022/01/21 12:59:55;;;;;;;4.50;2.10;;;6.60;99.90;;;;;;4929789;29;20436;-78
2022/01/21 13:02:23;;;;;;;4.97;1.93;;;6.60;99.90;;;;;;4933915;29;20499;-80
2022/01/21 13:05:10;;;;;;;5.00;1.50;;;6.80;99.90;;;;;;4934833;29;20448;-83
2022/01/21 13:08:04;;;;;;;6.23;2.53;;;6.80;99.90;;;;;;4934411;29;20456;-82
2022/01/21 13:10:32;;;;;;;5.20;1.40;;;6.90;99.90;;;;;;4933945;29;20468;-90
2022/01/21 13:13:16;;;;;;;6.83;2.90;;;7.20;99.90;;;;;;4937602;29;20481;-82
2022/01/21 13:15:48;;;;;;;3.10;1.53;;;7.40;99.90;;;;;;4934740;29;20444;-84
2022/01/21 13:18:19;;;;;;;4.53;1.40;;;7.60;99.90;;;;;;4938760;29;20440;-83
2022/01/21 13:20:54;;;;;;;6.40;1.77;;;7.80;99.90;;;;;;4937972;29;20929;-89
2022/01/21 13:23:50;;;;;;;5.80;1.50;;;7.90;99.90;;;;;;4940536;29;20455;-87
2022/01/21 13:26:18;;;;;;;7.33;1.97;;;7.90;99.90;;;;;;4941967;29;20439;-91
2022/01/21 13:29:10;;;;;;;7.20;1.70;;;7.90;99.90;;;;;;4958374;28;21071;-82
2022/01/21 13:31:54;;;;;;;3.83;1.60;;;7.90;99.90;;;;;;4945850;29;20507;-85
2022/01/21 13:34:26;;;;;;;6.10;1.40;;;7.90;99.90;;;;;;4941656;29;20475;-86
2022/01/21 13:36:58;;;;;;;5.20;1.53;;;7.90;99.90;;;;;;4955266;29;20435;-80
2022/01/21 13:39:27;;;;;;;6.20;2.10;;;7.90;99.90;;;;;;4942379;29;20737;-84
2022/01/21 13:41:55;;;;;;;3.13;1.67;;;7.90;99.90;;;;;;4941317;29;20460;-83
2022/01/21 13:44:48;;;;;;;4.23;1.50;;;7.80;99.90;;;;;;4956997;29;20459;-80
2022/01/21 13:47:47;;;;;;;5.37;1.60;;;7.80;99.90;;;;;;4940254;29;20550;-85
2022/01/21 13:50:19;;;;;;;5.17;1.63;;;7.80;99.90;;;;;;4954608;28;20476;-83
2022/01/21 13:52:51;;;;;;;3.60;1.83;;;7.80;99.90;;;;;;4945003;29;20551;-85
2022/01/21 13:55:38;;;;;;;5.27;1.47;;;7.80;99.90;;;;;;4943829;29;20452;-85
2022/01/21 13:58:08;;;;;;;6.00;1.87;;;7.80;99.90;;;;;;4940677;29;20467;-80
2022/01/21 14:00:36;;;;;;;7.93;1.90;;;8.00;99.90;;;;;;4934511;29;20487;-84
2022/01/21 14:03:13;;;;;;;4.20;1.53;;;7.60;99.90;;;;;;4936671;29;20489;-84
2022/01/21 14:05:45;;;;;;;6.33;2.03;;;7.60;99.90;;;;;;4954602;29;24193;-86
2022/01/21 14:08:19;;;;;;;5.00;1.53;;;7.50;99.90;;;;;;4940805;29;20470;-81
2022/01/21 14:10:45;;;;;;;7.70;1.77;;;7.50;99.90;;;;;;4939941;29;20579;-88
2022/01/21 14:13:11;;;;;;;8.43;1.90;;;7.50;99.90;;;;;;4936462;29;20543;-85
2022/01/21 14:15:37;;;;;;;7.43;1.83;;;7.40;99.90;;;;;;4938503;29;20192;-90
2022/01/21 14:18:03;;;;;;;8.37;2.00;;;7.30;99.90;;;;;;4955823;29;20525;-85
2022/01/21 14:20:32;;;;;;;4.30;2.23;;;7.30;99.90;;;;;;4938634;29;20452;-87
2022/01/21 14:22:58;;;;;;;2.83;1.63;;;7.30;99.90;;;;;;4938126;29;20471;-86